Due to severe server failure at the provider, not all demo sites are operational. Will take some days to rebuilt everything.

Demonstration site - Click on the  for more information

This is an optional block. Switch it on/off in your settings-file: $SITE['bannerTop'] = false; or $SITE['bannerBottom'] = false;

You can display ads, any other important text or photo’s using text / html or PHP code.

You can place one or more at the top and or bottom and it can all be different for content / size .



Visit our other weather sites:

Template documentation
and downloads

And another site



Nearby METAR Reports

   
EBAW - Antwerp
Updated: 28-11-2020 08:20
Mist, Partly Cloudy  
Mist, Partly Cloudy  
   Wind: East 3.7 km/h
Wind: East 3.7 km/h
Temperature: 2°C
Dew Point: 1°C
Humidity: 93%
Barometer: 1019 hPa
Clouds: Partly Cloudy
Visibility: 5 km
Cloud details: Partly Cloudy ft
EBAW 280720Z 10002KT 4500 BR NSC 02/01 Q1019 BECMG 6000 NSW
EBLG - Liège
Updated: 28-11-2020 08:20
Clear  
Clear  
   Wind: varies 1.9 km/h<br />Gust to 1.9 km/h
Wind: varies 1.9 km/h
Gust to 1.9 km/h
Temperature: 6°C
Dew Point: 4°C
Humidity: 87%
Barometer: 1018 hPa
Visibility: More than 10 km
Cloud details: Clear ft
EBLG 280720Z VRB01G11KT CAVOK 06/04 Q1018 NOSIG
EBCV - Mons/Bergen
Updated: 28-11-2020 07:55
Clear  
Clear  
   Wind: varies 1.9 km/h
Wind: varies 1.9 km/h
Temperature: 2°C
Dew Point: 2°C
Humidity: 100%
Barometer: 1017 hPa
Clouds: Clear
Cloud details: Clear ft
EBCV 280655Z AUTO VRB01KT //// NCD 02/02 Q1017
EHBK - Maastricht
Updated: 28-11-2020 08:25
Partly Cloudy  
Partly Cloudy  
   Wind: NE 5.6 km/h
Wind: NE 5.6 km/h
Temperature: 5°C
Wind Chill: 4°C
Dew Point: 3°C
Humidity: 87%
Barometer: 1018 hPa
Clouds: Partly Cloudy
Visibility: 9 km
Cloud details: Partly Cloudy ft
EHBK 280725Z AUTO 05003KT 010V100 9000 NSC 05/03 Q1018 NOSIG
ELLX - Luxemburg
Updated: 28-11-2020 08:20
Freezing, Fog, Overcast  
Freezing, Fog, Overcast  
   Wind: Calm
Wind: Calm
Temperature: 0°C
Dew Point: 0°C
Humidity: 100%
Barometer: 1018 hPa
Clouds: Overcast
Visibility: 0 km
Cloud details: Overcast 100 ft
ELLX 280720Z 00000KT 0050 R24/0200N FZFG VV001 M00/M00 Q1018 NOSIG
EBOS - Oostende
Updated: 28-11-2020 08:20
Mist, Partly Cloudy  
Mist, Partly Cloudy  
   Wind: East 7.4 km/h
Wind: East 7.4 km/h
Temperature: 3°C
Wind Chill: 1°C
Dew Point: 2°C
Humidity: 93%
Barometer: 1018 hPa
Clouds: Partly Cloudy
Visibility: 1 km
Cloud details: Partly Cloudy ft
EBOS 280720Z 08004KT 1400 R08/1800D R26/1900N BR NSC 03/02 Q1018 BECMG 3500 BR

Script developed by  Saratoga-weather.org Adapted for the template by  Weerstation Leuven

This is an optional block. Switch it on/off in your settings-file: $SITE['bannerTop'] = false; or $SITE['bannerBottom'] = false;

You can display ads, any other important text or photo’s using text / html or PHP code.

You can place one or more at the top and or bottom and it can all be different for content / size .